createdAt,value
2023-02-06T00:02:05.813Z,23.25
2023-02-06T00:04:32.426Z,23.27
2023-02-06T00:06:59.047Z,23.27
2023-02-06T00:09:25.622Z,23.25
2023-02-06T00:11:52.258Z,23.24
2023-02-06T00:14:18.874Z,23.24
2023-02-06T00:16:45.521Z,23.24
2023-02-06T00:19:12.101Z,23.24
2023-02-06T00:21:38.808Z,23.26
2023-02-06T00:24:05.552Z,23.26
2023-02-06T00:26:32.274Z,23.25
2023-02-06T00:28:59.060Z,23.26
2023-02-06T00:31:25.911Z,23.26
2023-02-06T00:33:52.550Z,23.25
2023-02-06T00:36:19.200Z,23.25
2023-02-06T00:38:45.861Z,23.25
2023-02-06T00:41:12.504Z,23.26
2023-02-06T00:43:39.132Z,23.27
2023-02-06T00:46:05.901Z,23.27
2023-02-06T00:48:32.577Z,23.25
2023-02-06T00:50:59.219Z,23.25
2023-02-06T00:53:25.910Z,23.26
2023-02-06T00:55:52.524Z,23.27
2023-02-06T00:58:19.171Z,23.27
2023-02-06T01:00:45.749Z,23.27
2023-02-06T01:03:12.404Z,23.27
2023-02-06T01:05:39.162Z,23.28
2023-02-06T01:08:05.907Z,23.28
2023-02-06T01:10:32.744Z,23.26
2023-02-06T01:12:59.354Z,23.26
2023-02-06T01:15:25.946Z,23.25
2023-02-06T01:17:52.552Z,23.27
2023-02-06T01:20:19.216Z,23.26
2023-02-06T01:22:45.789Z,23.27
2023-02-06T01:25:12.382Z,23.28
2023-02-06T01:27:39.606Z,23.27
2023-02-06T01:30:07.117Z,23.28
2023-02-06T01:32:37.028Z,23.29
2023-02-06T01:35:04.535Z,23.29
2023-02-06T01:37:31.151Z,23.29
2023-02-06T01:39:57.729Z,23.29
2023-02-06T01:42:24.500Z,23.31
2023-02-06T01:45:26.015Z,23.31
2023-02-06T01:47:54.833Z,23.31
2023-02-06T01:50:21.553Z,23.29
2023-02-06T01:52:50.571Z,23.29
2023-02-06T01:55:17.222Z,23.30
2023-02-06T01:57:43.844Z,23.31
2023-02-06T02:00:13.150Z,23.31
2023-02-06T02:02:42.999Z,23.32
2023-02-06T02:05:09.749Z,23.33
2023-02-06T02:07:37.368Z,23.31
2023-02-06T02:10:04.390Z,23.33
2023-02-06T02:12:31.002Z,23.32
2023-02-06T02:14:57.619Z,23.33
2023-02-06T02:17:58.451Z,23.34
2023-02-06T02:20:52.988Z,23.33
2023-02-06T02:23:38.206Z,23.33
2023-02-06T02:26:39.435Z,23.33
2023-02-06T02:29:24.818Z,23.33
2023-02-06T02:32:00.250Z,23.32
2023-02-06T02:34:50.689Z,23.33
2023-02-06T02:37:35.284Z,23.33
2023-02-06T02:40:13.877Z,23.32
2023-02-06T02:43:00.259Z,23.33
2023-02-06T02:45:33.214Z,23.32
2023-02-06T02:48:30.185Z,23.32
2023-02-06T02:50:56.710Z,23.32
2023-02-06T02:53:23.118Z,23.34
2023-02-06T02:55:49.524Z,23.33
2023-02-06T02:58:16.931Z,23.32
2023-02-06T03:00:45.349Z,23.32
2023-02-06T03:03:11.955Z,23.28
2023-02-06T03:05:41.649Z,23.21
2023-02-06T03:08:15.636Z,23.14
2023-02-06T03:10:48.994Z,23.04
2023-02-06T03:13:23.354Z,22.97
2023-02-06T03:15:55.213Z,22.87
2023-02-06T03:18:26.267Z,22.79
2023-02-06T03:20:52.731Z,22.72
2023-02-06T03:23:20.616Z,22.62
2023-02-06T03:25:47.558Z,22.53
2023-02-06T03:28:15.497Z,22.44
2023-02-06T03:30:42.387Z,22.37
2023-02-06T03:33:08.826Z,22.27
2023-02-06T03:35:36.138Z,22.19
2023-02-06T03:38:03.518Z,22.12
2023-02-06T03:40:29.999Z,22.06
2023-02-06T03:42:57.130Z,21.99
2023-02-06T03:45:27.955Z,21.91
2023-02-06T03:47:55.306Z,21.84
2023-02-06T03:50:22.163Z,21.77
2023-02-06T03:52:49.016Z,21.69
2023-02-06T03:55:18.944Z,21.62
2023-02-06T03:57:46.017Z,21.57
2023-02-06T04:00:12.725Z,21.58
2023-02-06T04:02:39.487Z,21.58
2023-02-06T04:05:06.000Z,21.62
2023-02-06T04:07:33.354Z,21.70
2023-02-06T04:09:59.749Z,21.76
2023-02-06T04:12:26.191Z,21.81
2023-02-06T04:14:52.624Z,21.93
2023-02-06T04:17:38.460Z,22.10
2023-02-06T04:20:05.686Z,22.27
2023-02-06T04:22:32.166Z,22.46
2023-02-06T04:24:58.621Z,22.64
2023-02-06T04:27:25.043Z,22.82
2023-02-06T04:29:51.474Z,22.96
2023-02-06T04:32:17.886Z,23.07
2023-02-06T04:34:44.276Z,23.15
2023-02-06T04:37:12.511Z,23.20
2023-02-06T04:39:39.009Z,23.24
2023-02-06T04:42:05.857Z,23.26
2023-02-06T04:44:33.804Z,23.34
2023-02-06T04:47:00.708Z,23.42
2023-02-06T04:49:27.130Z,23.52
2023-02-06T04:51:53.563Z,23.58
2023-02-06T04:54:19.989Z,23.63
2023-02-06T04:56:46.495Z,23.65
2023-02-06T04:59:13.071Z,23.67
2023-02-06T05:01:39.553Z,23.69
2023-02-06T05:04:06.036Z,23.70
2023-02-06T05:06:32.557Z,23.71
2023-02-06T05:08:59.401Z,23.71
2023-02-06T05:11:25.821Z,23.73
2023-02-06T05:13:52.211Z,23.73
2023-02-06T05:16:18.778Z,23.77
2023-02-06T05:18:45.274Z,23.83
2023-02-06T05:21:12.137Z,23.89
2023-02-06T05:23:38.570Z,23.93
2023-02-06T05:26:05.137Z,24.00
2023-02-06T05:28:33.455Z,24.00
2023-02-06T05:31:00.421Z,24.01
2023-02-06T05:33:27.006Z,24.01
2023-02-06T05:35:53.411Z,24.02
2023-02-06T05:38:19.866Z,24.00
2023-02-06T05:40:46.250Z,23.99
2023-02-06T05:43:12.677Z,23.98
2023-02-06T05:45:39.601Z,23.97
2023-02-06T05:48:06.176Z,23.96
2023-02-06T05:50:32.585Z,23.94
2023-02-06T05:52:59.048Z,23.95
2023-02-06T05:55:25.469Z,23.96
2023-02-06T05:57:54.225Z,24.01
2023-02-06T06:00:20.693Z,24.06
2023-02-06T06:02:47.158Z,24.11
2023-02-06T06:05:13.590Z,24.13
2023-02-06T06:07:43.190Z,24.14
2023-02-06T06:10:09.719Z,24.15
2023-02-06T06:12:36.337Z,24.11
2023-02-06T06:15:02.829Z,24.10
2023-02-06T06:17:29.261Z,24.10
2023-02-06T06:19:55.675Z,24.08
2023-02-06T06:22:22.117Z,24.06
2023-02-06T06:24:48.530Z,24.07
2023-02-06T06:27:14.924Z,24.06
2023-02-06T06:29:41.402Z,24.07
2023-02-06T06:32:07.793Z,24.06
2023-02-06T06:34:34.196Z,24.05
2023-02-06T06:37:00.636Z,24.06
2023-02-06T06:39:27.139Z,24.05
2023-02-06T06:41:53.570Z,24.06
2023-02-06T06:44:20.134Z,24.01
2023-02-06T06:46:46.539Z,23.96
2023-02-06T06:49:13.005Z,23.90
2023-02-06T06:51:39.430Z,23.84
2023-02-06T06:54:05.866Z,23.82
2023-02-06T06:56:32.364Z,23.78
2023-02-06T06:58:58.776Z,23.72
2023-02-06T07:01:25.359Z,23.70
2023-02-06T07:03:52.022Z,23.67
2023-02-06T07:06:18.453Z,23.61
2023-02-06T07:08:44.936Z,23.49
2023-02-06T07:11:11.699Z,23.35
2023-02-06T07:13:38.696Z,23.21
2023-02-06T07:16:05.366Z,23.07
2023-02-06T07:18:31.909Z,22.90
2023-02-06T07:20:58.577Z,22.78
2023-02-06T07:23:25.045Z,22.65
2023-02-06T07:25:51.628Z,22.54
2023-02-06T07:28:18.173Z,22.43
2023-02-06T07:30:44.689Z,22.41
2023-02-06T07:33:11.218Z,22.44
2023-02-06T07:35:40.249Z,22.48
2023-02-06T07:38:06.688Z,22.53
2023-02-06T07:40:44.806Z,22.58
2023-02-06T07:43:12.325Z,22.59
2023-02-06T07:45:39.038Z,22.70
2023-02-06T07:48:06.112Z,22.81
2023-02-06T07:50:39.949Z,22.96
2023-02-06T07:53:07.825Z,23.14
2023-02-06T07:55:37.257Z,23.29
2023-02-06T07:58:03.917Z,23.32
2023-02-06T08:00:30.357Z,23.29
2023-02-06T08:02:56.798Z,23.28
2023-02-06T08:05:24.788Z,23.25
2023-02-06T08:07:51.778Z,23.25
2023-02-06T08:10:18.292Z,23.28
2023-02-06T08:12:45.078Z,23.36
2023-02-06T08:15:11.529Z,23.42
2023-02-06T08:17:37.972Z,23.46
2023-02-06T08:20:04.527Z,23.49
2023-02-06T08:22:31.050Z,23.50
2023-02-06T08:24:57.484Z,23.50
2023-02-06T08:27:23.930Z,23.50
2023-02-06T08:29:51.770Z,23.49
2023-02-06T08:32:18.313Z,23.51
2023-02-06T08:34:44.781Z,23.55
2023-02-06T08:37:11.161Z,23.59
2023-02-06T08:39:38.632Z,23.60
2023-02-06T08:42:05.195Z,23.64
2023-02-06T08:44:31.824Z,23.64
2023-02-06T08:47:09.298Z,23.65
2023-02-06T08:49:36.615Z,23.66
2023-02-06T08:52:03.046Z,23.70
2023-02-06T08:54:29.475Z,23.76
2023-02-06T08:57:02.633Z,23.81
2023-02-06T08:59:31.924Z,23.82
2023-02-06T09:01:58.412Z,23.80
2023-02-06T09:04:24.878Z,23.85
2023-02-06T09:06:52.364Z,23.93
2023-02-06T09:09:18.893Z,24.11
2023-02-06T09:11:45.344Z,24.16
2023-02-06T09:14:15.933Z,24.19
2023-02-06T09:16:42.498Z,24.17
2023-02-06T09:19:09.958Z,24.14
2023-02-06T09:21:36.440Z,24.11
2023-02-06T09:24:06.392Z,24.08
2023-02-06T09:26:34.011Z,24.09
2023-02-06T09:29:00.864Z,24.12
2023-02-06T09:31:28.968Z,24.16
2023-02-06T09:33:58.005Z,24.06
2023-02-06T09:36:24.426Z,23.38
2023-02-06T09:38:51.613Z,23.46
2023-02-06T09:41:19.095Z,23.61
2023-02-06T09:43:49.413Z,23.75
2023-02-06T09:46:16.029Z,23.90
2023-02-06T09:48:42.445Z,24.02
2023-02-06T09:51:19.344Z,24.09
2023-02-06T09:53:58.094Z,24.16
2023-02-06T09:56:27.496Z,24.20
2023-02-06T09:58:56.863Z,24.23
2023-02-06T10:01:23.296Z,24.31
2023-02-06T10:04:16.229Z,24.29
2023-02-06T10:06:45.642Z,24.34
2023-02-06T10:09:14.716Z,24.33
2023-02-06T10:11:42.883Z,24.36
2023-02-06T10:14:19.106Z,24.40
2023-02-06T10:16:57.268Z,24.42
2023-02-06T10:19:23.752Z,24.43
2023-02-06T10:21:52.021Z,24.42
2023-02-06T10:24:30.100Z,24.42
2023-02-06T10:26:57.364Z,24.47
2023-02-06T10:29:25.357Z,24.51
2023-02-06T10:31:57.031Z,24.56
2023-02-06T10:34:42.312Z,24.61
2023-02-06T10:37:15.458Z,24.54
2023-02-06T10:39:47.833Z,24.44
2023-02-06T10:42:17.221Z,24.26
2023-02-06T10:44:51.535Z,24.16
2023-02-06T10:47:39.871Z,24.06
2023-02-06T10:50:25.234Z,23.94
2023-02-06T10:52:52.023Z,23.79
2023-02-06T10:55:21.456Z,23.68
2023-02-06T10:57:48.075Z,23.63
2023-02-06T11:00:20.300Z,23.57
2023-02-06T11:03:06.217Z,23.52
2023-02-06T11:05:34.303Z,23.50
2023-02-06T11:08:11.485Z,23.40
2023-02-06T11:10:38.552Z,23.29
2023-02-06T11:13:11.404Z,23.25
2023-02-06T11:15:38.971Z,23.21
2023-02-06T11:18:06.276Z,23.15
2023-02-06T11:20:33.496Z,23.17
2023-02-06T11:23:19.088Z,23.22
2023-02-06T11:25:45.892Z,23.30
2023-02-06T11:28:13.112Z,23.33
2023-02-06T11:30:40.608Z,23.42
2023-02-06T11:33:07.898Z,23.52
2023-02-06T11:35:37.451Z,23.66
2023-02-06T11:38:05.900Z,23.79
2023-02-06T11:40:32.382Z,23.85
2023-02-06T11:43:14.737Z,23.86
2023-02-06T11:45:41.470Z,23.93
2023-02-06T11:48:10.624Z,23.95
2023-02-06T11:50:38.055Z,23.89
2023-02-06T11:53:17.468Z,23.95
2023-02-06T11:55:44.419Z,24.03
2023-02-06T11:58:13.950Z,24.10
2023-02-06T12:00:41.125Z,24.12
2023-02-06T12:03:25.599Z,24.09
2023-02-06T12:05:52.248Z,24.06
2023-02-06T12:08:19.340Z,24.07
2023-02-06T12:11:04.226Z,24.13
2023-02-06T12:13:33.852Z,24.15
2023-02-06T12:16:02.041Z,24.17
2023-02-06T12:18:38.909Z,24.18
2023-02-06T12:21:11.677Z,24.18
2023-02-06T12:23:39.897Z,24.19
2023-02-06T12:26:16.962Z,24.21
2023-02-06T12:28:55.895Z,24.21
2023-02-06T12:31:35.071Z,24.20
2023-02-06T12:34:12.823Z,24.19
2023-02-06T12:37:00.343Z,24.21
2023-02-06T12:39:30.401Z,24.23
2023-02-06T12:42:10.336Z,24.25
2023-02-06T12:44:41.641Z,24.30
2023-02-06T12:47:23.514Z,24.31
2023-02-06T12:49:56.118Z,24.25
2023-02-06T12:52:24.438Z,24.08
2023-02-06T12:54:55.849Z,23.90
2023-02-06T12:57:23.026Z,23.78
2023-02-06T13:00:05.361Z,23.70
2023-02-06T13:02:38.069Z,23.63
2023-02-06T13:05:06.480Z,23.18
2023-02-06T13:07:41.589Z,22.65
2023-02-06T13:10:34.919Z,22.31
2023-02-06T13:13:01.456Z,22.43
2023-02-06T13:15:28.957Z,22.72
2023-02-06T13:17:55.853Z,22.89
2023-02-06T13:20:22.924Z,22.99
2023-02-06T13:22:53.828Z,23.09
2023-02-06T13:25:29.391Z,23.18
2023-02-06T13:28:02.799Z,23.26
2023-02-06T13:30:29.294Z,23.31
2023-02-06T13:32:56.905Z,23.31
2023-02-06T13:35:27.764Z,23.30
2023-02-06T13:38:29.938Z,23.33
2023-02-06T13:41:16.684Z,23.38
2023-02-06T13:43:45.936Z,23.51
2023-02-06T13:46:13.823Z,23.58
2023-02-06T13:48:46.901Z,23.56
2023-02-06T13:51:32.358Z,23.56
2023-02-06T13:54:17.587Z,23.57
2023-02-06T13:56:53.233Z,23.58
2023-02-06T13:59:22.464Z,23.58
2023-02-06T14:01:48.971Z,23.56
2023-02-06T14:04:17.967Z,23.55
2023-02-06T14:07:02.732Z,23.52
2023-02-06T14:09:47.967Z,23.55
2023-02-06T14:12:36.804Z,23.30
2023-02-06T14:15:21.949Z,22.06
2023-02-06T14:17:57.529Z,20.96
2023-02-06T14:20:33.211Z,20.84
2023-02-06T14:23:05.883Z,21.06
2023-02-06T14:25:48.463Z,21.39
2023-02-06T14:28:38.122Z,21.66
2023-02-06T14:31:15.834Z,21.80
2023-02-06T14:34:01.133Z,21.88
2023-02-06T14:36:30.746Z,21.96
2023-02-06T14:39:15.578Z,21.99
2023-02-06T14:41:42.267Z,21.99
2023-02-06T14:44:12.506Z,21.97
2023-02-06T14:46:40.620Z,21.94
2023-02-06T14:49:07.068Z,21.93
2023-02-06T14:51:37.509Z,21.91
2023-02-06T14:54:05.071Z,21.87
2023-02-06T14:56:32.618Z,21.87
2023-02-06T14:59:15.798Z,21.88
2023-02-06T15:01:42.798Z,21.93
2023-02-06T15:04:13.359Z,21.97
2023-02-06T15:06:40.846Z,22.04
2023-02-06T15:09:07.317Z,22.07
2023-02-06T15:11:34.135Z,22.13
2023-02-06T15:14:02.339Z,22.26
2023-02-06T15:16:30.501Z,22.44
2023-02-06T15:19:10.240Z,22.55
2023-02-06T15:21:38.231Z,22.63
2023-02-06T15:24:04.935Z,22.68
2023-02-06T15:26:43.593Z,22.73
2023-02-06T15:29:23.133Z,22.80
2023-02-06T15:31:50.443Z,22.82
2023-02-06T15:34:17.942Z,22.88
2023-02-06T15:36:44.405Z,22.95
2023-02-06T15:39:11.188Z,22.99
2023-02-06T15:41:37.821Z,23.00
2023-02-06T15:44:09.830Z,23.03
2023-02-06T15:46:36.392Z,23.03
2023-02-06T15:49:03.212Z,23.03
2023-02-06T15:51:30.858Z,23.06
2023-02-06T15:54:15.578Z,23.06
2023-02-06T15:56:42.077Z,23.08
2023-02-06T15:59:17.012Z,23.10
2023-02-06T16:01:43.429Z,23.09
2023-02-06T16:04:13.074Z,23.10
2023-02-06T16:06:39.578Z,23.10
2023-02-06T16:09:09.010Z,23.09
2023-02-06T16:11:51.174Z,23.10
2023-02-06T16:14:21.881Z,23.13
2023-02-06T16:17:05.765Z,23.14
2023-02-06T16:19:41.689Z,23.13
2023-02-06T16:22:15.680Z,23.09
2023-02-06T16:24:42.149Z,23.08
2023-02-06T16:27:14.925Z,23.09
2023-02-06T16:29:41.534Z,23.09
2023-02-06T16:32:24.816Z,23.10
2023-02-06T16:34:51.646Z,23.14
2023-02-06T16:37:19.305Z,23.15
2023-02-06T16:39:45.777Z,23.15
2023-02-06T16:42:16.341Z,23.22
2023-02-06T16:44:45.803Z,23.22
2023-02-06T16:47:14.068Z,23.28
2023-02-06T16:49:40.491Z,23.28
2023-02-06T16:52:06.983Z,23.33
2023-02-06T16:54:33.423Z,23.40
2023-02-06T16:57:11.690Z,23.50
2023-02-06T16:59:38.097Z,23.52
2023-02-06T17:02:09.532Z,23.53
2023-02-06T17:04:35.991Z,23.58
2023-02-06T17:07:02.431Z,23.58
2023-02-06T17:09:28.875Z,23.58
2023-02-06T17:11:55.399Z,23.60
2023-02-06T17:14:21.892Z,23.62
2023-02-06T17:16:48.496Z,23.65
2023-02-06T17:19:15.562Z,23.67
2023-02-06T17:21:42.031Z,23.68
2023-02-06T17:24:08.605Z,23.69
2023-02-06T17:26:35.052Z,23.75
2023-02-06T17:29:01.457Z,23.74
2023-02-06T17:31:28.050Z,23.77
2023-02-06T17:33:54.529Z,23.79
2023-02-06T17:36:29.125Z,23.83
2023-02-06T17:38:56.710Z,23.85
2023-02-06T17:41:26.048Z,23.87
2023-02-06T17:43:52.446Z,23.89
2023-02-06T17:46:18.848Z,23.87
2023-02-06T17:48:46.213Z,23.89
2023-02-06T17:51:12.648Z,23.90
2023-02-06T17:53:39.034Z,23.89
2023-02-06T17:56:06.475Z,23.88
2023-02-06T17:58:33.220Z,23.83
2023-02-06T18:00:59.616Z,23.77
2023-02-06T18:03:26.122Z,23.69
2023-02-06T18:06:01.418Z,23.62
2023-02-06T18:08:28.048Z,23.52
2023-02-06T18:10:54.597Z,23.43
2023-02-06T18:13:21.473Z,23.35
2023-02-06T18:15:54.751Z,23.25
2023-02-06T18:18:22.475Z,23.20
2023-02-06T18:20:48.975Z,23.13
2023-02-06T18:23:15.452Z,23.10
2023-02-06T18:25:43.425Z,23.07
2023-02-06T18:28:13.746Z,23.08
2023-02-06T18:30:40.799Z,23.08
2023-02-06T18:33:08.045Z,23.09
2023-02-06T18:35:41.157Z,23.12
2023-02-06T18:38:09.901Z,23.19
2023-02-06T18:40:37.547Z,23.36
2023-02-06T18:43:04.674Z,23.52
2023-02-06T18:45:34.365Z,23.57
2023-02-06T18:48:01.910Z,23.58
2023-02-06T18:50:28.412Z,23.63
2023-02-06T18:52:55.010Z,23.65
2023-02-06T18:55:21.623Z,23.67
2023-02-06T18:57:48.193Z,23.70
2023-02-06T19:00:15.565Z,23.75
2023-02-06T19:02:42.033Z,23.82
2023-02-06T19:05:08.579Z,23.86
2023-02-06T19:07:35.006Z,23.88
2023-02-06T19:10:02.112Z,23.89
2023-02-06T19:12:28.685Z,23.89
2023-02-06T19:14:55.750Z,23.91
2023-02-06T19:17:24.485Z,23.90
2023-02-06T19:19:50.930Z,23.90
2023-02-06T19:22:17.389Z,23.91
2023-02-06T19:24:44.519Z,23.91
2023-02-06T19:27:11.337Z,23.92
2023-02-06T19:29:37.894Z,23.97
2023-02-06T19:32:04.882Z,23.99
2023-02-06T19:34:32.972Z,24.01
2023-02-06T19:37:01.071Z,23.94
2023-02-06T19:39:27.488Z,23.95
2023-02-06T19:41:53.927Z,23.97
2023-02-06T19:44:20.360Z,23.96
2023-02-06T19:46:47.179Z,23.94
2023-02-06T19:49:13.619Z,23.96
2023-02-06T19:51:40.707Z,23.96
2023-02-06T19:54:07.194Z,23.93
2023-02-06T19:56:39.331Z,23.92
2023-02-06T19:59:07.069Z,23.93
2023-02-06T20:01:35.411Z,23.96
2023-02-06T20:04:02.100Z,23.91
2023-02-06T20:06:30.750Z,23.89
2023-02-06T20:08:57.141Z,23.82
2023-02-06T20:11:23.623Z,23.74
2023-02-06T20:13:52.046Z,23.66
2023-02-06T20:16:22.545Z,23.57
2023-02-06T20:18:49.028Z,23.53
2023-02-06T20:21:20.160Z,23.46
2023-02-06T20:23:46.731Z,23.39
2023-02-06T20:26:13.170Z,23.35
2023-02-06T20:28:39.715Z,23.34
2023-02-06T20:31:09.538Z,23.33
2023-02-06T20:33:38.428Z,23.33
2023-02-06T20:36:05.835Z,23.33
2023-02-06T20:38:32.260Z,23.31
2023-02-06T20:40:58.726Z,23.30
2023-02-06T20:43:25.307Z,23.30
2023-02-06T20:45:52.506Z,23.29
2023-02-06T20:48:18.962Z,23.29
2023-02-06T20:50:45.375Z,23.33
2023-02-06T20:53:11.839Z,23.34
2023-02-06T20:55:41.848Z,23.32
2023-02-06T20:58:10.571Z,23.32
2023-02-06T21:00:37.373Z,23.34
2023-02-06T21:03:03.993Z,23.39
2023-02-06T21:05:31.065Z,23.38
2023-02-06T21:07:58.130Z,23.40
2023-02-06T21:10:24.796Z,23.38
2023-02-06T21:12:51.277Z,23.39
2023-02-06T21:15:18.099Z,23.40
2023-02-06T21:17:44.524Z,23.41
2023-02-06T21:20:11.107Z,23.43
2023-02-06T21:22:37.542Z,23.44
2023-02-06T21:25:04.040Z,23.44
2023-02-06T21:27:30.492Z,23.44
2023-02-06T21:29:56.900Z,23.44
2023-02-06T21:32:23.453Z,23.44
2023-02-06T21:34:49.872Z,23.43
2023-02-06T21:37:16.494Z,23.40
2023-02-06T21:39:43.013Z,23.39
2023-02-06T21:42:09.685Z,23.39
2023-02-06T21:44:37.521Z,23.38
2023-02-06T21:47:04.133Z,23.33
2023-02-06T21:49:30.562Z,23.29
2023-02-06T21:52:00.063Z,23.27
2023-02-06T21:54:26.546Z,23.30
2023-02-06T21:56:53.338Z,23.25
2023-02-06T21:59:19.720Z,23.23
2023-02-06T22:01:46.147Z,23.26
2023-02-06T22:04:12.685Z,23.26
2023-02-06T22:06:39.207Z,23.28
2023-02-06T22:09:07.738Z,23.29
2023-02-06T22:11:38.289Z,23.29
2023-02-06T22:14:06.148Z,23.27
2023-02-06T22:16:32.856Z,23.27
2023-02-06T22:19:00.699Z,23.26
2023-02-06T22:21:27.621Z,23.26
2023-02-06T22:23:55.793Z,23.27
2023-02-06T22:26:22.198Z,23.27
2023-02-06T22:28:48.815Z,23.25
2023-02-06T22:31:22.840Z,23.23
2023-02-06T22:33:49.529Z,23.24
2023-02-06T22:36:16.800Z,23.25
2023-02-06T22:38:43.411Z,23.25
2023-02-06T22:41:15.489Z,23.25
2023-02-06T22:43:42.020Z,23.26
2023-02-06T22:46:08.766Z,23.25
2023-02-06T22:48:35.365Z,23.24
2023-02-06T22:51:05.662Z,23.21
2023-02-06T22:53:32.232Z,23.22
2023-02-06T22:56:20.848Z,23.22
2023-02-06T22:58:47.379Z,23.23
2023-02-06T23:01:14.122Z,23.23
2023-02-06T23:03:41.397Z,23.24
2023-02-06T23:06:08.236Z,23.24
2023-02-06T23:08:34.886Z,23.24
2023-02-06T23:11:01.570Z,23.26
2023-02-06T23:13:28.062Z,23.27
2023-02-06T23:15:55.035Z,23.26
2023-02-06T23:18:21.478Z,23.27
2023-02-06T23:20:53.270Z,23.29
2023-02-06T23:23:19.697Z,23.27
2023-02-06T23:25:46.087Z,23.30
2023-02-06T23:28:12.522Z,23.29
2023-02-06T23:30:39.353Z,23.31
2023-02-06T23:33:05.789Z,23.32
2023-02-06T23:35:36.624Z,23.31
2023-02-06T23:38:05.729Z,23.31
2023-02-06T23:40:32.369Z,23.32
2023-02-06T23:42:58.797Z,23.31
2023-02-06T23:45:25.364Z,23.31
2023-02-06T23:47:51.814Z,23.29
2023-02-06T23:50:18.345Z,23.30
2023-02-06T23:52:44.801Z,23.31
2023-02-06T23:55:11.248Z,23.31
2023-02-06T23:57:38.074Z,23.31
